Time;durP1;ratioP1;P1;durP2;ratioP2;P2;SDS_P1;SDS_P2;PMS_P1;PMS_P2;Temp;Humidity;BMP_temperature;BMP_pressure;BME280_temperature;BME280_humidity;BME280_pressure;Samples;Min_cycle;Max_cycle;Signal;HPM_P1;HPM_P2
2022/03/17 00:00:27;;;;;;;;;;;22.60;37.60;;;;;;5064177;28;19947;-55
2022/03/17 00:02:52;;;;;;;;;;;22.60;37.60;;;;;;5068067;28;19913;-55
2022/03/17 00:05:17;;;;;;;;;;;22.60;37.60;;;;;;5065340;28;20064;-55
2022/03/17 00:07:43;;;;;;;;;;;22.50;38.30;;;;;;5066976;28;20023;-55
2022/03/17 00:10:14;;;;;;;;;;;22.50;37.70;;;;;;5067801;28;19913;-55
2022/03/17 00:12:40;;;;;;;;;;;22.50;37.80;;;;;;5067927;28;19928;-54
2022/03/17 00:15:06;;;;;;;;;;;22.40;37.70;;;;;;5064994;28;20007;-55
2022/03/17 00:17:31;;;;;;;;;;;22.40;37.80;;;;;;5066954;28;20019;-55
2022/03/17 00:19:56;;;;;;;;;;;22.30;37.80;;;;;;5065546;28;19916;-55
2022/03/17 00:22:22;;;;;;;;;;;22.30;37.80;;;;;;5067639;28;19919;-55
2022/03/17 00:24:48;;;;;;;;;;;22.30;37.90;;;;;;5065799;28;19951;-54
2022/03/17 00:27:13;;;;;;;;;;;22.30;37.90;;;;;;5067961;28;20014;-55
2022/03/17 00:29:39;;;;;;;;;;;22.30;38.00;;;;;;5067006;28;20641;-55
2022/03/17 00:32:05;;;;;;;;;;;22.30;37.90;;;;;;5066409;28;19920;-54
2022/03/17 00:34:30;;;;;;;;;;;22.30;37.90;;;;;;5069371;28;20249;-54
2022/03/17 00:36:56;;;;;;;;;;;22.30;37.80;;;;;;5067106;28;20292;-54
2022/03/17 00:39:21;;;;;;;;;;;22.30;37.80;;;;;;5066930;28;19995;-55
2022/03/17 00:41:47;;;;;;;;;;;22.20;37.80;;;;;;5065084;28;19920;-54
2022/03/17 00:44:12;;;;;;;;;;;22.20;37.90;;;;;;5062876;28;19912;-55
2022/03/17 00:46:38;;;;;;;;;;;22.20;37.80;;;;;;5067491;28;19912;-54
2022/03/17 00:49:03;;;;;;;;;;;22.20;37.90;;;;;;5065932;28;20629;-55
2022/03/17 00:51:29;;;;;;;;;;;22.10;37.90;;;;;;5067771;28;19912;-54
2022/03/17 00:53:54;;;;;;;;;;;22.10;37.90;;;;;;5067724;28;20388;-54
2022/03/17 00:56:20;;;;;;;;;;;22.10;37.90;;;;;;5066174;28;19917;-54
2022/03/17 00:58:48;;;;;;;;;;;22.10;38.00;;;;;;5061245;28;19920;-54
2022/03/17 01:01:14;;;;;;;;;;;22.10;38.00;;;;;;5066273;28;20296;-55
2022/03/17 01:03:40;;;;;;;;;;;22.00;37.90;;;;;;5065391;28;19923;-55
2022/03/17 01:06:06;;;;;;;;;;;22.00;38.00;;;;;;5065284;28;19939;-54
2022/03/17 01:08:31;;;;;;;;;;;22.00;37.90;;;;;;5066252;28;19912;-54
2022/03/17 01:10:57;;;;;;;;;;;22.00;37.90;;;;;;5066412;28;19975;-54
2022/03/17 01:13:22;;;;;;;;;;;22.00;37.90;;;;;;5067002;28;19989;-55
2022/03/17 01:15:48;;;;;;;;;;;22.00;37.90;;;;;;5065617;28;19916;-54
2022/03/17 01:18:13;;;;;;;;;;;21.90;38.00;;;;;;5066849;28;19920;-54
2022/03/17 01:20:38;;;;;;;;;;;21.90;38.00;;;;;;5066262;28;20269;-54
2022/03/17 01:23:06;;;;;;;;;;;21.90;37.90;;;;;;5066863;28;19943;-54
2022/03/17 01:25:31;;;;;;;;;;;21.90;37.90;;;;;;5065445;28;20288;-54
2022/03/17 01:27:57;;;;;;;;;;;21.90;38.00;;;;;;5067848;28;19913;-54
2022/03/17 01:30:22;;;;;;;;;;;21.90;38.00;;;;;;5067115;28;20371;-54
2022/03/17 01:32:48;;;;;;;;;;;21.90;38.00;;;;;;5064892;28;19931;-54
2022/03/17 01:35:13;;;;;;;;;;;21.80;38.70;;;;;;5065176;28;20142;-54
2022/03/17 01:37:39;;;;;;;;;;;21.80;38.10;;;;;;5065639;28;19996;-55
2022/03/17 01:40:05;;;;;;;;;;;21.80;38.10;;;;;;5062727;28;19968;-54
2022/03/17 01:42:30;;;;;;;;;;;21.70;38.00;;;;;;5068068;28;20292;-54
2022/03/17 01:44:56;;;;;;;;;;;21.70;38.10;;;;;;5066339;28;20046;-55
2022/03/17 01:47:28;;;;;;;;;;;21.70;38.00;;;;;;5067737;28;19945;-54
2022/03/17 01:50:03;;;;;;;;;;;21.70;38.00;;;;;;5064709;28;19917;-54
2022/03/17 01:52:29;;;;;;;;;;;21.80;38.10;;;;;;5064698;28;19948;-55
2022/03/17 01:54:54;;;;;;;;;;;21.80;38.10;;;;;;5067273;28;20384;-54
2022/03/17 01:57:20;;;;;;;;;;;21.70;38.00;;;;;;5061972;28;19970;-54
2022/03/17 01:59:46;;;;;;;;;;;21.70;38.00;;;;;;5066031;28;19966;-55
2022/03/17 02:02:12;;;;;;;;;;;21.70;37.90;;;;;;5048805;28;20316;-55
2022/03/17 02:04:38;;;;;;;;;;;21.70;37.90;;;;;;5064477;28;19913;-55
2022/03/17 02:07:05;;;;;;;;;;;21.70;38.00;;;;;;5064846;28;19977;-55
2022/03/17 02:09:31;;;;;;;;;;;21.60;38.00;;;;;;5066399;28;20325;-55
2022/03/17 02:14:47;;;;;;;;;;;21.70;38.00;;;;;;5065529;28;20288;-55
2022/03/17 02:17:12;;;;;;;;;;;21.70;37.90;;;;;;5062976;28;19912;-55
2022/03/17 02:19:38;;;;;;;;;;;21.80;38.00;;;;;;5062097;28;19913;-55
2022/03/17 02:22:03;;;;;;;;;;;21.80;38.10;;;;;;5064899;28;20058;-54
2022/03/17 02:27:13;;;;;;;;;;;21.80;38.20;;;;;;5061424;28;19932;-54
2022/03/17 02:29:39;;;;;;;;;;;21.80;38.20;;;;;;5061455;28;19917;-54
2022/03/17 02:32:04;;;;;;;;;;;21.90;38.10;;;;;;5064761;28;19927;-54
2022/03/17 02:34:30;;;;;;;;;;;22.00;37.90;;;;;;5064223;28;19913;-55
2022/03/17 02:36:56;;;;;;;;;;;22.10;37.70;;;;;;5064338;28;19977;-55
2022/03/17 02:39:22;;;;;;;;;;;22.30;37.60;;;;;;5064114;28;19920;-55
2022/03/17 02:41:47;;;;;;;;;;;22.30;37.30;;;;;;5062517;28;19965;-54
2022/03/17 02:44:13;;;;;;;;;;;22.50;37.10;;;;;;5064460;28;19913;-54
2022/03/17 02:46:38;;;;;;;;;;;22.50;37.00;;;;;;5063043;28;20399;-54
2022/03/17 02:49:04;;;;;;;;;;;22.60;36.80;;;;;;5065135;28;20548;-54
2022/03/17 02:51:29;;;;;;;;;;;22.70;36.70;;;;;;5060411;28;20011;-54
2022/03/17 02:53:55;;;;;;;;;;;22.80;36.60;;;;;;5062574;28;19913;-54
2022/03/17 02:56:20;;;;;;;;;;;22.90;36.40;;;;;;5066745;28;20368;-55
2022/03/17 02:58:46;;;;;;;;;;;22.90;36.10;;;;;;5061390;28;20003;-56
2022/03/17 03:01:11;;;;;;;;;;;23.00;35.90;;;;;;5063353;28;19965;-56
2022/03/17 03:03:37;;;;;;;;;;;23.00;35.90;;;;;;5063421;28;19931;-55
2022/03/17 03:06:02;;;;;;;;;;;23.00;35.90;;;;;;5065281;28;19920;-56
2022/03/17 03:08:28;;;;;;;;;;;23.00;35.70;;;;;;5064421;28;20011;-56
2022/03/17 03:10:53;;;;;;;;;;;23.00;35.60;;;;;;5062938;28;19913;-55
2022/03/17 03:13:19;;;;;;;;;;;23.10;35.50;;;;;;5063734;28;19920;-56
2022/03/17 03:15:44;;;;;;;;;;;23.00;35.40;;;;;;5064983;28;19920;-56
2022/03/17 03:18:10;;;;;;;;;;;23.00;35.40;;;;;;5063927;28;19912;-56
2022/03/17 03:20:37;;;;;;;;;;;23.00;35.50;;;;;;5063374;28;19966;-56
2022/03/17 03:23:03;;;;;;;;;;;23.00;35.60;;;;;;5063238;28;19912;-56
2022/03/17 03:25:28;;;;;;;;;;;22.90;35.60;;;;;;5064425;28;19920;-56
2022/03/17 03:27:54;;;;;;;;;;;22.90;35.70;;;;;;5060699;28;19938;-56
2022/03/17 03:30:20;;;;;;;;;;;22.90;35.80;;;;;;5061606;28;20011;-55
2022/03/17 03:32:46;;;;;;;;;;;22.90;35.80;;;;;;5061119;28;19928;-56
2022/03/17 03:37:56;;;;;;;;;;;22.90;36.50;;;;;;5068781;28;20295;-55
2022/03/17 03:40:21;;;;;;;;;;;22.90;35.80;;;;;;5065923;28;19909;-55
2022/03/17 03:42:47;;;;;;;;;;;22.90;35.70;;;;;;5066664;28;19953;-55
2022/03/17 03:45:13;;;;;;;;;;;22.90;35.70;;;;;;5068276;28;19919;-56
2022/03/17 03:47:38;;;;;;;;;;;22.80;35.70;;;;;;5064225;28;19934;-56
2022/03/17 03:50:04;;;;;;;;;;;22.90;35.80;;;;;;5067101;28;19917;-53
2022/03/17 03:52:29;;;;;;;;;;;22.80;35.70;;;;;;5067318;28;19999;-55
2022/03/17 03:54:55;;;;;;;;;;;22.70;35.70;;;;;;5066842;28;20454;-56
2022/03/17 03:57:20;;;;;;;;;;;22.70;35.70;;;;;;5066861;28;20396;-55
2022/03/17 03:59:46;;;;;;;;;;;22.70;35.70;;;;;;5066131;28;20300;-55
2022/03/17 04:02:11;;;;;;;;;;;22.70;36.30;;;;;;5068211;28;19913;-56
2022/03/17 04:04:39;;;;;;;;;;;22.60;35.60;;;;;;5066598;28;19935;-56
2022/03/17 04:07:05;;;;;;;;;;;22.60;35.60;;;;;;5063107;28;19931;-55
2022/03/17 04:09:33;;;;;;;;;;;22.60;35.60;;;;;;5069876;28;20011;-56
2022/03/17 04:11:59;;;;;;;;;;;22.60;35.60;;;;;;5065515;28;19922;-56
2022/03/17 04:14:24;;;;;;;;;;;22.60;35.60;;;;;;5067873;28;19916;-53
2022/03/17 04:16:50;;;;;;;;;;;22.60;35.60;;;;;;5067984;28;20368;-55
2022/03/17 04:19:16;;;;;;;;;;;22.60;35.60;;;;;;5063815;28;19916;-56
2022/03/17 04:21:41;;;;;;;;;;;22.60;35.60;;;;;;5067239;28;19968;-56
2022/03/17 04:24:07;;;;;;;;;;;22.60;35.60;;;;;;5067547;28;20360;-56
2022/03/17 04:26:32;;;;;;;;;;;22.60;35.60;;;;;;5069445;28;19966;-56
2022/03/17 04:28:58;;;;;;;;;;;22.60;35.60;;;;;;5067683;28;20007;-55
2022/03/17 04:31:23;;;;;;;;;;;22.70;35.70;;;;;;5065326;28;19917;-55
2022/03/17 04:33:49;;;;;;;;;;;22.70;35.70;;;;;;5068993;28;19931;-55
2022/03/17 04:36:15;;;;;;;;;;;22.60;35.60;;;;;;5062680;28;20399;-56
2022/03/17 04:38:41;;;;;;;;;;;22.70;35.50;;;;;;5068203;28;19916;-56
2022/03/17 04:41:06;;;;;;;;;;;22.70;35.50;;;;;;5067181;28;19913;-56
2022/03/17 04:43:32;;;;;;;;;;;22.70;35.50;;;;;;5064844;28;19913;-56
2022/03/17 04:45:58;;;;;;;;;;;22.70;35.50;;;;;;5067211;28;19962;-56
2022/03/17 04:48:24;;;;;;;;;;;22.70;35.50;;;;;;5065721;28;19920;-53
2022/03/17 04:50:49;;;;;;;;;;;22.70;35.50;;;;;;5064634;28;19913;-54
2022/03/17 04:53:27;;;;;;;;;;;22.70;35.50;;;;;;5065934;28;19974;-54
2022/03/17 04:55:53;;;;;;;;;;;22.70;35.40;;;;;;5065202;28;19924;-55
2022/03/17 04:58:18;;;;;;;;;;;22.70;35.40;;;;;;5067844;28;19958;-55
2022/03/17 05:00:44;;;;;;;;;;;22.80;35.30;;;;;;5061370;28;19920;-55
2022/03/17 05:03:09;;;;;;;;;;;22.80;35.20;;;;;;5065770;28;19952;-54
2022/03/17 05:05:35;;;;;;;;;;;22.80;35.00;;;;;;5063628;28;19923;-54
2022/03/17 05:08:00;;;;;;;;;;;22.90;35.10;;;;;;5066055;28;19924;-54
2022/03/17 05:10:28;;;;;;;;;;;22.90;35.10;;;;;;5065865;28;20363;-54
2022/03/17 05:12:54;;;;;;;;;;;22.80;35.00;;;;;;5067074;28;19921;-54
2022/03/17 05:15:20;;;;;;;;;;;22.80;35.10;;;;;;5066133;28;19954;-54
2022/03/17 05:17:47;;;;;;;;;;;22.80;35.10;;;;;;5066661;28;19913;-54
2022/03/17 05:20:12;;;;;;;;;;;22.70;35.10;;;;;;5065402;28;19936;-54
2022/03/17 05:22:41;;;;;;;;;;;22.70;35.20;;;;;;5067511;28;19912;-54
2022/03/17 05:25:08;;;;;;;;;;;22.70;35.30;;;;;;5065124;28;19916;-55
2022/03/17 05:27:37;;;;;;;;;;;22.70;35.30;;;;;;5065534;28;19916;-54
2022/03/17 05:30:03;;;;;;;;;;;22.60;35.20;;;;;;5067414;28;19944;-55
2022/03/17 05:32:28;;;;;;;;;;;22.70;35.30;;;;;;5067408;28;20623;-54
2022/03/17 05:34:54;;;;;;;;;;;22.60;35.20;;;;;;5064882;28;20030;-55
2022/03/17 05:37:19;;;;;;;;;;;22.60;35.30;;;;;;5065619;28;20283;-55
2022/03/17 05:39:45;;;;;;;;;;;22.60;35.40;;;;;;5063554;28;20361;-55
2022/03/17 05:42:10;;;;;;;;;;;22.50;35.40;;;;;;5062556;28;19958;-56
2022/03/17 05:44:35;;;;;;;;;;;22.50;35.50;;;;;;5063952;28;19917;-55
2022/03/17 05:47:01;;;;;;;;;;;22.40;35.40;;;;;;5064144;28;19988;-54
2022/03/17 05:49:28;;;;;;;;;;;22.40;35.40;;;;;;5067149;28;19913;-55
2022/03/17 05:51:53;;;;;;;;;;;22.40;35.40;;;;;;5065624;28;19919;-54
2022/03/17 05:54:19;;;;;;;;;;;22.30;35.40;;;;;;5067394;28;19917;-54
2022/03/17 05:56:44;;;;;;;;;;;22.40;35.40;;;;;;5062859;28;19971;-54
2022/03/17 05:59:09;;;;;;;;;;;22.40;35.40;;;;;;5065363;28;19913;-54
2022/03/17 06:01:35;;;;;;;;;;;22.40;35.40;;;;;;5066611;28;20344;-56
2022/03/17 06:04:00;;;;;;;;;;;22.40;35.40;;;;;;5065700;28;20361;-55
2022/03/17 06:06:26;;;;;;;;;;;22.30;35.40;;;;;;5066212;28;19920;-55
2022/03/17 06:08:51;;;;;;;;;;;22.30;35.50;;;;;;5064164;28;19946;-55
2022/03/17 06:11:17;;;;;;;;;;;22.30;35.40;;;;;;5062492;28;19969;-55
2022/03/17 06:13:44;;;;;;;;;;;22.30;35.40;;;;;;5066964;28;19920;-55
2022/03/17 06:16:10;;;;;;;;;;;22.20;35.40;;;;;;5064790;28;20413;-55
2022/03/17 06:18:35;;;;;;;;;;;22.20;35.50;;;;;;5064988;28;20070;-55
2022/03/17 06:21:00;;;;;;;;;;;22.20;35.60;;;;;;5062792;28;19956;-55
2022/03/17 06:23:26;;;;;;;;;;;22.20;35.60;;;;;;5063852;28;19921;-55
2022/03/17 06:25:53;;;;;;;;;;;22.20;35.60;;;;;;5062645;28;19935;-55
2022/03/17 06:28:18;;;;;;;;;;;22.20;35.50;;;;;;5063488;28;19962;-53
2022/03/17 06:30:44;;;;;;;;;;;22.20;35.70;;;;;;5065527;28;19962;-54
2022/03/17 06:33:10;;;;;;;;;;;22.10;35.60;;;;;;5064871;28;20037;-55
2022/03/17 06:35:35;;;;;;;;;;;22.10;35.70;;;;;;5063264;28;19921;-55
2022/03/17 06:38:01;;;;;;;;;;;22.10;35.70;;;;;;5066413;28;19920;-55
2022/03/17 06:40:27;;;;;;;;;;;22.10;35.70;;;;;;5063115;28;20436;-54
2022/03/17 06:42:53;;;;;;;;;;;22.20;35.70;;;;;;5063966;28;20027;-55
2022/03/17 06:45:18;;;;;;;;;;;22.20;35.60;;;;;;5062689;28;20007;-55
2022/03/17 06:47:44;;;;;;;;;;;22.20;35.40;;;;;;5063953;28;19917;-54
2022/03/17 06:50:10;;;;;;;;;;;22.30;35.40;;;;;;5063667;28;19921;-54
2022/03/17 06:52:35;;;;;;;;;;;22.30;35.40;;;;;;5065252;28;19943;-55
2022/03/17 06:55:01;;;;;;;;;;;22.40;35.40;;;;;;5066247;28;19916;-54
2022/03/17 06:57:26;;;;;;;;;;;22.40;35.30;;;;;;5065045;28;20003;-55
2022/03/17 06:59:52;;;;;;;;;;;22.50;35.10;;;;;;5064527;28;19912;-55
2022/03/17 07:02:17;;;;;;;;;;;22.50;35.00;;;;;;5061409;28;19960;-54
2022/03/17 07:04:43;;;;;;;;;;;22.50;35.00;;;;;;5060981;28;19913;-53
2022/03/17 07:07:08;;;;;;;;;;;22.50;34.90;;;;;;5066420;28;19932;-55
2022/03/17 07:09:34;;;;;;;;;;;22.50;34.80;;;;;;5065769;28;19917;-54
2022/03/17 07:11:59;;;;;;;;;;;22.50;34.90;;;;;;5065502;28;19916;-55
2022/03/17 07:14:25;;;;;;;;;;;22.50;34.90;;;;;;5065845;28;19916;-55
2022/03/17 07:16:50;;;;;;;;;;;22.50;34.80;;;;;;5062503;28;19916;-55
2022/03/17 07:19:16;;;;;;;;;;;22.50;34.90;;;;;;5066548;28;19912;-55
2022/03/17 07:21:41;;;;;;;;;;;22.50;35.00;;;;;;5065809;28;20031;-55
2022/03/17 07:24:08;;;;;;;;;;;22.40;35.00;;;;;;5065888;28;19912;-55
2022/03/17 07:26:33;;;;;;;;;;;22.40;35.10;;;;;;5063073;28;19916;-55
2022/03/17 07:28:59;;;;;;;;;;;22.40;35.10;;;;;;5062383;28;19916;-55
2022/03/17 07:31:24;;;;;;;;;;;22.40;35.20;;;;;;5065958;28;19916;-55
2022/03/17 07:33:50;;;;;;;;;;;22.30;35.20;;;;;;5062904;28;19923;-55
2022/03/17 07:36:15;;;;;;;;;;;22.30;35.20;;;;;;5063014;28;19927;-55
2022/03/17 07:38:41;;;;;;;;;;;22.30;35.10;;;;;;5064174;28;19912;-55
2022/03/17 07:41:06;;;;;;;;;;;22.30;35.20;;;;;;5060713;28;20264;-56
2022/03/17 07:43:32;;;;;;;;;;;22.30;35.30;;;;;;5058236;28;19938;-55
2022/03/17 07:45:57;;;;;;;;;;;22.30;35.40;;;;;;5067057;28;19959;-56
2022/03/17 07:48:23;;;;;;;;;;;22.30;35.50;;;;;;5070738;28;20437;-56
2022/03/17 07:50:50;;;;;;;;;;;22.40;35.40;;;;;;5070804;28;19912;-56
2022/03/17 07:53:16;;;;;;;;;;;22.80;35.20;;;;;;5069658;28;19924;-55
2022/03/17 07:55:42;;;;;;;;;;;23.30;34.60;;;;;;5068752;28;19965;-55
2022/03/17 07:58:07;;;;;;;;;;;23.70;34.00;;;;;;5067057;28;19915;-54
2022/03/17 08:00:33;;;;;;;;;;;24.10;33.50;;;;;;5061489;28;20521;-55
2022/03/17 08:02:59;;;;;;;;;;;24.30;33.10;;;;;;5064553;28;19916;-55
2022/03/17 08:05:25;;;;;;;;;;;24.50;32.90;;;;;;5062380;28;20079;-56
2022/03/17 08:07:50;;;;;;;;;;;24.80;32.70;;;;;;5065135;28;19920;-55
2022/03/17 08:10:16;;;;;;;;;;;24.90;32.40;;;;;;5070583;28;19960;-55
2022/03/17 08:12:42;;;;;;;;;;;25.10;32.30;;;;;;5069745;28;19955;-55
2022/03/17 08:15:08;;;;;;;;;;;25.20;32.10;;;;;;5066634;28;19995;-54
2022/03/17 08:17:33;;;;;;;;;;;25.40;32.10;;;;;;5069468;28;19912;-55
2022/03/17 08:19:59;;;;;;;;;;;25.40;31.80;;;;;;5065999;28;19916;-55
2022/03/17 08:22:27;;;;;;;;;;;25.50;31.80;;;;;;5073443;28;20016;-55
2022/03/17 08:24:52;;;;;;;;;;;25.50;31.70;;;;;;5073900;28;19913;-54
2022/03/17 08:27:18;;;;;;;;;;;25.60;31.60;;;;;;5072867;28;19965;-55
2022/03/17 08:29:43;;;;;;;;;;;25.60;31.60;;;;;;5071317;28;19970;-56
2022/03/17 08:32:09;;;;;;;;;;;25.70;31.50;;;;;;5073765;28;20388;-55
2022/03/17 08:34:35;;;;;;;;;;;25.70;31.60;;;;;;5070005;28;20300;-55
2022/03/17 08:37:00;;;;;;;;;;;25.80;31.60;;;;;;5073536;28;19916;-56
2022/03/17 08:39:26;;;;;;;;;;;25.80;31.60;;;;;;5074189;28;20387;-54
2022/03/17 08:41:52;;;;;;;;;;;25.80;31.50;;;;;;5073112;28;20286;-55
2022/03/17 08:44:17;;;;;;;;;;;25.80;31.60;;;;;;5068575;28;19916;-55
2022/03/17 08:49:27;;;;;;;;;;;25.70;31.70;;;;;;5070670;28;20001;-54
2022/03/17 08:51:53;;;;;;;;;;;25.70;31.80;;;;;;5072560;28;19979;-54
2022/03/17 08:54:25;;;;;;;;;;;25.70;31.90;;;;;;5069417;28;19919;-55
2022/03/17 08:56:51;;;;;;;;;;;25.70;32.00;;;;;;5067734;28;19917;-55
2022/03/17 08:59:17;;;;;;;;;;;25.70;31.90;;;;;;5070851;28;19920;-54
2022/03/17 09:01:42;;;;;;;;;;;25.70;32.00;;;;;;5069954;28;19912;-55
2022/03/17 09:04:08;;;;;;;;;;;25.60;32.10;;;;;;5068213;28;20000;-55
2022/03/17 09:06:35;;;;;;;;;;;25.60;32.30;;;;;;5066048;28;19924;-56
2022/03/17 09:09:00;;;;;;;;;;;25.60;32.40;;;;;;5066357;28;21570;-56
2022/03/17 09:11:26;;;;;;;;;;;25.60;32.30;;;;;;5063255;28;19954;-55
2022/03/17 09:13:52;;;;;;;;;;;25.60;32.20;;;;;;5066576;28;19912;-55
2022/03/17 09:16:17;;;;;;;;;;;25.60;32.20;;;;;;5064950;28;19924;-56
2022/03/17 09:18:42;;;;;;;;;;;25.60;32.20;;;;;;5066236;28;19913;-56
2022/03/17 09:21:08;;;;;;;;;;;25.70;32.10;;;;;;5065583;28;19920;-55
2022/03/17 09:23:34;;;;;;;;;;;25.70;32.00;;;;;;5069528;28;19916;-55
2022/03/17 09:25:59;;;;;;;;;;;25.80;32.10;;;;;;5067554;28;20029;-54
2022/03/17 09:28:27;;;;;;;;;;;25.80;32.00;;;;;;5068471;28;19917;-56
2022/03/17 09:30:56;;;;;;;;;;;25.90;32.00;;;;;;5071765;28;19967;-55
2022/03/17 09:33:25;;;;;;;;;;;25.90;31.90;;;;;;5070389;28;19920;-55
2022/03/17 09:35:51;;;;;;;;;;;25.90;31.90;;;;;;5073157;28;20393;-55
2022/03/17 09:38:17;;;;;;;;;;;25.90;32.00;;;;;;5070121;28;19912;-55
2022/03/17 09:40:42;;;;;;;;;;;25.90;32.00;;;;;;5059563;28;19932;-54
2022/03/17 09:43:28;;;;;;;;;;;25.90;32.10;;;;;;5063439;28;19952;-55
2022/03/17 09:45:54;;;;;;;;;;;25.90;32.10;;;;;;5066901;28;19916;-54
2022/03/17 09:48:21;;;;;;;;;;;25.90;32.10;;;;;;5070092;28;19917;-54
2022/03/17 09:50:47;;;;;;;;;;;25.90;32.10;;;;;;5068478;28;19935;-56
2022/03/17 09:53:13;;;;;;;;;;;25.90;32.20;;;;;;5066100;28;20346;-56
2022/03/17 09:55:43;;;;;;;;;;;25.90;32.20;;;;;;5064665;28;20011;-56
2022/03/17 09:58:09;;;;;;;;;;;25.90;32.20;;;;;;5065638;28;20260;-56
2022/03/17 10:00:50;;;;;;;;;;;25.90;32.20;;;;;;5066639;28;19924;-56
2022/03/17 10:03:25;;;;;;;;;;;25.90;32.30;;;;;;5064520;28;20015;-56
2022/03/17 10:05:51;;;;;;;;;;;25.90;32.40;;;;;;5068391;28;19964;-54
2022/03/17 10:08:17;;;;;;;;;;;25.90;32.50;;;;;;5070808;28;19959;-53
2022/03/17 10:10:42;;;;;;;;;;;25.90;32.50;;;;;;5069698;28;19913;-53
2022/03/17 10:13:19;;;;;;;;;;;25.90;32.40;;;;;;5063633;28;19991;-54
2022/03/17 10:16:04;;;;;;;;;;;26.00;32.40;;;;;;5070661;28;19972;-55
2022/03/17 10:18:30;;;;;;;;;;;26.00;32.30;;;;;;5071560;28;19970;-54
2022/03/17 10:21:12;;;;;;;;;;;26.00;32.20;;;;;;5071097;28;20400;-56
2022/03/17 10:23:45;;;;;;;;;;;26.10;32.20;;;;;;5071716;28;19912;-55
2022/03/17 10:26:11;;;;;;;;;;;26.10;32.30;;;;;;5066010;28;19955;-54
2022/03/17 10:28:38;;;;;;;;;;;26.10;32.20;;;;;;5068013;28;20368;-55
2022/03/17 10:31:04;;;;;;;;;;;26.10;32.30;;;;;;5060769;28;19913;-55
2022/03/17 10:33:29;;;;;;;;;;;26.10;32.30;;;;;;5065919;28;19916;-55
2022/03/17 10:35:55;;;;;;;;;;;26.10;32.30;;;;;;5071124;28;19920;-54
2022/03/17 10:38:25;;;;;;;;;;;26.10;32.30;;;;;;5069786;28;20356;-54
2022/03/17 10:41:03;;;;;;;;;;;26.20;32.30;;;;;;5070120;28;19913;-55
2022/03/17 10:43:33;;;;;;;;;;;26.10;32.30;;;;;;5071149;28;19912;-55
2022/03/17 10:46:05;;;;;;;;;;;26.20;32.40;;;;;;5069943;28;19916;-54
2022/03/17 10:48:31;;;;;;;;;;;26.10;32.30;;;;;;5066091;28;20027;-54
2022/03/17 10:50:56;;;;;;;;;;;26.20;33.10;;;;;;5069886;28;20407;-54
2022/03/17 10:53:28;;;;;;;;;;;26.20;32.40;;;;;;5070933;28;20003;-56
2022/03/17 10:55:55;;;;;;;;;;;26.10;32.50;;;;;;5071066;28;19999;-56
2022/03/17 10:58:20;;;;;;;;;;;26.10;32.50;;;;;;5069003;28;19917;-56
2022/03/17 11:00:46;;;;;;;;;;;26.10;32.60;;;;;;5063386;28;19990;-56
2022/03/17 11:03:12;;;;;;;;;;;26.10;32.60;;;;;;5069534;28;19913;-55
2022/03/17 11:05:37;;;;;;;;;;;26.00;32.60;;;;;;5068841;28;19959;-56
2022/03/17 11:08:03;;;;;;;;;;;26.10;32.60;;;;;;5065540;28;20319;-55
2022/03/17 11:10:28;;;;;;;;;;;26.10;32.60;;;;;;5060744;28;20288;-55
2022/03/17 11:12:54;;;;;;;;;;;26.10;32.60;;;;;;5067683;28;19916;-55
2022/03/17 11:15:30;;;;;;;;;;;26.20;32.70;;;;;;5070977;28;20444;-55
2022/03/17 11:18:02;;;;;;;;;;;26.20;33.30;;;;;;5071630;28;19917;-56
2022/03/17 11:20:27;;;;;;;;;;;26.30;32.70;;;;;;5059531;28;20007;-55
2022/03/17 11:23:06;;;;;;;;;;;26.30;32.50;;;;;;5069084;28;20053;-55
2022/03/17 11:25:34;;;;;;;;;;;26.30;32.50;;;;;;5062469;28;20412;-55
2022/03/17 11:28:00;;;;;;;;;;;26.40;32.50;;;;;;5070942;28;20421;-54
2022/03/17 11:30:29;;;;;;;;;;;26.40;32.40;;;;;;5070956;28;19920;-55
2022/03/17 11:32:55;;;;;;;;;;;26.40;32.50;;;;;;5070956;28;20399;-56
2022/03/17 11:35:21;;;;;;;;;;;26.40;32.40;;;;;;5068079;28;19974;-56
2022/03/17 11:37:47;;;;;;;;;;;26.40;33.10;;;;;;5064600;28;20364;-56
2022/03/17 11:40:13;;;;;;;;;;;26.40;32.40;;;;;;5064919;28;19920;-56
2022/03/17 11:42:39;;;;;;;;;;;26.50;32.40;;;;;;5066912;28;19916;-55
2022/03/17 11:45:31;;;;;;;;;;;26.50;32.40;;;;;;5064146;28;20031;-56
2022/03/17 11:47:57;;;;;;;;;;;26.50;32.30;;;;;;5056902;28;20419;-55
2022/03/17 11:50:28;;;;;;;;;;;26.50;32.30;;;;;;5064017;28;19912;-56
2022/03/17 11:52:57;;;;;;;;;;;26.50;32.30;;;;;;5065253;28;19917;-56
2022/03/17 11:55:41;;;;;;;;;;;26.50;32.40;;;;;;5068664;28;20006;-56
2022/03/17 11:58:16;;;;;;;;;;;26.60;32.40;;;;;;5070470;28;20384;-54
2022/03/17 12:00:48;;;;;;;;;;;26.60;32.30;;;;;;5070368;28;20447;-55
2022/03/17 12:03:13;;;;;;;;;;;26.60;32.90;;;;;;5073870;28;19981;-56
2022/03/17 12:05:39;;;;;;;;;;;26.60;32.20;;;;;;5071785;28;20033;-56
2022/03/17 12:08:05;;;;;;;;;;;26.60;32.20;;;;;;5074408;28;20312;-55
2022/03/17 12:11:01;;;;;;;;;;;26.70;32.10;;;;;;5065082;28;19958;-56
2022/03/17 12:13:26;;;;;;;;;;;26.70;32.10;;;;;;5071550;28;19920;-56
2022/03/17 12:15:55;;;;;;;;;;;26.70;32.20;;;;;;5073647;28;19913;-56
2022/03/17 12:18:20;;;;;;;;;;;26.60;32.20;;;;;;5071787;28;20395;-56
2022/03/17 12:20:46;;;;;;;;;;;26.70;32.30;;;;;;5069879;28;19917;-56
2022/03/17 12:23:30;;;;;;;;;;;26.60;32.30;;;;;;5073890;28;19913;-54
2022/03/17 12:26:05;;;;;;;;;;;26.70;32.40;;;;;;5064655;28;19956;-56
2022/03/17 12:28:30;;;;;;;;;;;26.60;32.30;;;;;;5070817;28;19913;-54
2022/03/17 12:30:57;;;;;;;;;;;26.70;32.50;;;;;;5064568;28;19919;-54
2022/03/17 12:33:23;;;;;;;;;;;26.70;32.40;;;;;;5063516;28;19986;-55
2022/03/17 12:36:01;;;;;;;;;;;26.70;32.40;;;;;;5070173;28;19916;-56
2022/03/17 12:38:27;;;;;;;;;;;26.70;32.40;;;;;;5065024;28;20399;-54
2022/03/17 12:40:53;;;;;;;;;;;26.70;32.30;;;;;;5066217;28;19996;-56
2022/03/17 12:43:19;;;;;;;;;;;26.70;32.30;;;;;;5066943;28;19913;-56
2022/03/17 12:45:45;;;;;;;;;;;26.80;32.30;;;;;;5071553;28;20337;-55
2022/03/17 12:48:10;;;;;;;;;;;26.80;32.30;;;;;;5073786;28;19909;-54
2022/03/17 12:50:36;;;;;;;;;;;26.80;32.30;;;;;;5072731;28;19917;-55
2022/03/17 12:53:01;;;;;;;;;;;26.80;32.40;;;;;;5073733;28;19909;-55
2022/03/17 12:55:27;;;;;;;;;;;26.80;32.30;;;;;;5072240;28;19916;-56
2022/03/17 12:57:52;;;;;;;;;;;26.80;32.20;;;;;;5066443;28;19909;-56
2022/03/17 13:00:20;;;;;;;;;;;26.90;32.10;;;;;;5064023;28;19912;-55
2022/03/17 13:02:46;;;;;;;;;;;26.90;32.00;;;;;;5062763;28;20015;-55
2022/03/17 13:07:56;;;;;;;;;;;27.00;31.90;;;;;;5069356;28;19931;-55
2022/03/17 13:10:25;;;;;;;;;;;27.10;31.80;;;;;;5071820;28;20295;-55
2022/03/17 13:15:35;;;;;;;;;;;27.20;31.50;;;;;;5060721;28;20276;-56
2022/03/17 13:18:01;;;;;;;;;;;27.20;31.50;;;;;;5066315;28;20086;-54
2022/03/17 13:20:26;;;;;;;;;;;27.20;31.40;;;;;;5065457;28;19923;-55
2022/03/17 13:22:58;;;;;;;;;;;27.20;31.30;;;;;;5071139;28;19912;-55
2022/03/17 13:25:24;;;;;;;;;;;27.30;31.50;;;;;;5065782;28;19920;-55
2022/03/17 13:27:56;;;;;;;;;;;27.30;31.40;;;;;;5061077;28;19920;-55
2022/03/17 13:30:21;;;;;;;;;;;27.30;31.40;;;;;;5068205;28;19916;-54
2022/03/17 13:32:59;;;;;;;;;;;27.20;31.40;;;;;;5072633;28;19939;-56
2022/03/17 13:35:25;;;;;;;;;;;27.30;31.40;;;;;;5071248;28;19916;-55
2022/03/17 13:37:50;;;;;;;;;;;27.30;31.30;;;;;;5072554;28;19913;-56
2022/03/17 13:40:17;;;;;;;;;;;27.30;31.40;;;;;;5067360;28;20011;-55
2022/03/17 13:43:01;;;;;;;;;;;27.20;31.50;;;;;;5072156;28;19908;-54
2022/03/17 13:45:31;;;;;;;;;;;27.20;31.50;;;;;;5071038;28;19916;-55
2022/03/17 13:48:00;;;;;;;;;;;27.20;32.20;;;;;;5067616;28;19939;-54
2022/03/17 13:50:27;;;;;;;;;;;27.20;31.50;;;;;;5070251;28;19986;-55
2022/03/17 13:53:03;;;;;;;;;;;27.20;31.50;;;;;;5062997;28;19928;-56
2022/03/17 13:55:32;;;;;;;;;;;27.20;31.60;;;;;;5071373;28;20288;-57
2022/03/17 13:58:14;;;;;;;;;;;27.20;31.50;;;;;;5060126;28;19920;-54
2022/03/17 14:00:40;;;;;;;;;;;27.30;31.40;;;;;;5070395;28;20425;-54
2022/03/17 14:03:28;;;;;;;;;;;27.30;31.40;;;;;;5068953;28;20026;-55
2022/03/17 14:05:57;;;;;;;;;;;27.30;31.40;;;;;;5062473;28;20415;-54
2022/03/17 14:08:23;;;;;;;;;;;27.40;31.40;;;;;;5054195;28;20015;-56
2022/03/17 14:10:49;;;;;;;;;;;27.30;31.30;;;;;;5054856;28;20007;-55
2022/03/17 14:13:14;;;;;;;;;;;27.40;31.40;;;;;;5066054;28;19916;-56
2022/03/17 14:15:40;;;;;;;;;;;27.30;31.30;;;;;;5071104;28;19924;-55
2022/03/17 14:18:06;;;;;;;;;;;27.40;31.40;;;;;;5070608;28;20004;-55
2022/03/17 14:20:32;;;;;;;;;;;27.40;31.30;;;;;;5071194;28;19996;-55
2022/03/17 14:25:42;;;;;;;;;;;27.40;31.30;;;;;;5069065;28;20051;-56
2022/03/17 14:28:07;;;;;;;;;;;27.40;31.30;;;;;;5067610;28;20010;-56
2022/03/17 14:30:33;;;;;;;;;;;27.50;31.20;;;;;;5067481;28;20376;-55
2022/03/17 14:32:58;;;;;;;;;;;27.50;31.20;;;;;;5071981;28;19915;-56